Home > Products > Valid Products > TAF

000
FTUS42 KMFL 240909 AAC
TAFAPF
TAF AMD
KAPF 240909Z 2409/2506 VRB03KT P6SM VCSH FEW030 SCT050
     FM241600 25008KT P6SM VCTS SCT035CB
     FM242300 26006KT P6SM SCT250=



000
FTUS42 KMFL 240906 AAA
TAFFLL
TAF AMD
KFLL 240906Z 2409/2506 14005KT P6SM VCSH SCT030 SCT250
     FM241500 15009KT P6SM VCSH SCT030 SCT050
     FM250000 14005KT P6SM FEW025 SCT250=



000
FTUS42 KMFL 240906 AAA
TAFPBI
TAF AMD
KPBI 240906Z 2409/2506 VRB03KT P6SM FEW030 SCT250
     FM241500 15008KT P6SM VCSH SCT030 SCT050
     FM250000 VRB03KT P6SM FEW025 SCT250=



000
FTUS42 KMFL 240906 AAA
TAFPBI
TAF AMD
KPBI 240906Z 2409/2506 VRB03KT P6SM FEW030 SCT250
     FM241500 15008KT P6SM VCSH SCT030 SCT050
     FM250000 VRB03KT P6SM FEW025 SCT250=



000
FTUS42 KMFL 240906 AAA
TAFMIA
TAF AMD
KMIA 240906Z 2409/2506 VRB03KT P6SM FEW025 SCT250
     FM241500 14008KT P6SM VCSH SCT030 SCT050
     FM250000 VRB03KT P6SM FEW025 SCT250=



000
FTUS42 KMFL 240906 AAA
TAFFLL
TAF AMD
KFLL 240906Z 2409/2506 14005KT P6SM VCSH SCT030 SCT250
     FM241500 15009KT P6SM VCSH SCT030 SCT050
     FM250000 14005KT P6SM FEW025 SCT250=



000
FTUS42 KMFL 240906 AAB
TAFAPF
TAF AMD
KAPF 240906Z 2409/2506 VRB03KT P6SM VCSH FEW030 SCT050
     FM241800 25008KT P6SM VCTS SCT035CB
     FM242300 26006KT P6SM SCT250=



000
FTUS42 KMFL 240906 AAA
TAFMIA
TAF AMD
KMIA 240906Z 2409/2506 VRB03KT P6SM FEW025 SCT250
     FM241500 14008KT P6SM VCSH SCT030 SCT050
     FM250000 VRB03KT P6SM FEW025 SCT250=



000
FTUS42 KMFL 240906 AAB
TAFAPF
TAF AMD
KAPF 240906Z 2409/2506 VRB03KT P6SM VCSH FEW030 SCT050
     FM241800 25008KT P6SM VCTS SCT035CB
     FM242300 26006KT P6SM SCT250=



000
FTUS42 KMFL 240727 AAA
TAFAPF
TAF AMD
KAPF 240727Z 2407/2506 VRB03KT P6SM VCSH FEW030 SCT050
     FM241800 25008KT P6SM VCTS SCT035CB
     FM242300 26006KT P6SM SCT250=



000
FTUS42 KMFL 240727 AAA
TAFAPF
TAF AMD
KAPF 240727Z 2407/2506 VRB03KT P6SM VCSH FEW030 SCT050
     FM241800 25008KT P6SM VCTS SCT035CB
     FM242300 26006KT P6SM SCT250=



000
FTUS42 KMFL 240520
TAFFLL
TAF
KFLL 240520Z 2406/2506 14008KT P6SM FEW030 SCT250
     FM241800 15008KT P6SM VCTS SCT035CB
     FM242300 13008KT P6SM SCT250=



000
FTUS42 KMFL 240520
TAFMIA
TAF
KMIA 240520Z 2406/2506 VRB03KT P6SM FEW025 SCT250
     FM241500 13008KT P6SM VCSH SCT035 SCT050
     FM250000 VRB03KT P6SM FEW025 SCT250=



000
FTUS42 KMFL 240520
TAFPBI
TAF
KPBI 240520Z 2406/2506 VRB03KT P6SM FEW025 SCT250
     FM241500 15008KT P6SM VCSH SCT030 SCT050
     FM250000 VRB03KT P6SM FEW025 SCT250=



000
FTUS42 KMFL 240520
TAFAPF
TAF
KAPF 240520Z 2406/2506 VRB03KT P6SM FEW025 SCT250
     FM241600 23009KT P6SM VCTS SCT035CB BKN050
     FM242300 29005KT P6SM VCSH SCT030 BKN120
     FM250200 VRB03KT P6SM FEW025 SCT250=



000
FTUS42 KMFL 240520
TAFFLL
TAF
KFLL 240520Z 2406/2506 16005KT P6SM SCT025 SCT250
     FM241500 15008KT P6SM VCSH SCT035 SCT050
     FM250000 13008KT P6SM SCT030 SCT250=



000
FTUS42 KMFL 240520
TAFAPF
TAF
KAPF 240520Z 2406/2506 VRB03KT P6SM FEW025 SCT250
     FM241600 23009KT P6SM VCTS SCT035CB BKN050
     FM242300 29005KT P6SM VCSH SCT030 BKN120
     FM250200 VRB03KT P6SM FEW025 SCT250=



000
FTUS42 KMFL 240520
TAFPBI
TAF
KPBI 240520Z 2406/2506 VRB03KT P6SM FEW025 SCT250
     FM241500 15008KT P6SM VCSH SCT030 SCT050
     FM250000 VRB03KT P6SM FEW025 SCT250=



000
FTUS42 KMFL 240520
TAFMIA
TAF
KMIA 240520Z 2406/2506 VRB03KT P6SM FEW025 SCT250
     FM241500 13008KT P6SM VCSH SCT035 SCT050
     FM250000 VRB03KT P6SM FEW025 SCT250=



000
FTUS42 KMFL 240520
TAFFLL
TAF
KFLL 240520Z 2406/2506 16005KT P6SM SCT025 SCT250
     FM241500 15008KT P6SM VCSH SCT035 SCT050
     FM250000 13008KT P6SM SCT030 SCT250=



000
FTUS42 KMFL 240520
TAFPBI
TAF
KPBI 240520Z 2406/2506 17006KT P6SM FEW030 BKN250
     FM241500 15008KT P6SM SCT035=



000
FTUS42 KMFL 232333
TAFFLL
TAF
KFLL 232333Z 2400/2424 15006KT P6SM FEW035 SCT250
     FM241800 15008KT P6SM VCTS SCT035CB
     FM242300 13008KT P6SM SCT250=



000
FTUS42 KMFL 232333
TAFMIA
TAF
KMIA 232333Z 2400/2424 15007KT P6SM FEW035 SCT250
     FM241800 12008KT P6SM VCTS SCT035CB
     FM242300 13008KT P6SM SCT250=



000
FTUS42 KMFL 232333
TAFPBI
TAF
KPBI 232333Z 2400/2424 14006KT P6SM SCT250
     FM241500 15008KT P6SM SCT035=



000
FTUS42 KMFL 232333
TAFAPF
TAF
KAPF 232333Z 2400/2424 VRB05KT P6SM SCT250
     FM241800 25008KT P6SM VCTS SCT035CB
     FM242300 26006KT P6SM SCT250=



000
FTUS42 KMFL 232333
TAFMIA
TAF
KMIA 232333Z 2400/2424 15007KT P6SM FEW035 SCT250
     FM241800 12008KT P6SM VCTS SCT035CB
     FM242300 13008KT P6SM SCT250=



000
FTUS42 KMFL 232333
TAFAPF
TAF
KAPF 232333Z 2400/2424 VRB05KT P6SM SCT250
     FM241800 25008KT P6SM VCTS SCT035CB
     FM242300 26006KT P6SM SCT250=



000
FTUS42 KMFL 232333
TAFFLL
TAF
KFLL 232333Z 2400/2424 15006KT P6SM FEW035 SCT250
     FM241800 15008KT P6SM VCTS SCT035CB
     FM242300 13008KT P6SM SCT250=



000
FTUS42 KMFL 232333
TAFPBI
TAF
KPBI 232333Z 2400/2424 14006KT P6SM SCT250
     FM241500 15008KT P6SM SCT035=



000
FTUS42 KMFL 232110 AAA
TAFAPF
TAF AMD
KAPF 232110Z 2321/2418 26006KT P6SM VCTS SCT035CB
     FM232200 23005KT P6SM SCT030 BKN120
     FM240100 VRB02KT P6SM FEW030
     FM241500 23008KT P6SM SCT035=



000
FTUS42 KMFL 232110 AAA
TAFAPF
TAF AMD
KAPF 232110Z 2321/2418 26006KT P6SM VCTS SCT035CB
     FM232200 23005KT P6SM SCT030 BKN120
     FM240100 VRB02KT P6SM FEW030
     FM241500 23008KT P6SM SCT035=



000
FTUS42 KMFL 232108 AAA
TAFMIA
TAF AMD
KMIA 232108Z 2321/2418 15006KT P6SM VCSH SCT035 BKN250
     FM232200 16008KT P6SM SCT035 SCT150
     FM240700 VRB03KT P6SM FEW030
     FM241400 14008KT P6SM SCT035=



000
FTUS42 KMFL 232108 AAA
TAFMIA
TAF AMD
KMIA 232108Z 2321/2418 15006KT P6SM VCSH SCT035 BKN250
     FM232200 16008KT P6SM SCT035 SCT150
     FM240700 VRB03KT P6SM FEW030
     FM241400 14008KT P6SM SCT035=



000
FTUS42 KMFL 232106 AAA
TAFFLL
TAF AMD
KFLL 232106Z 2321/2418 VRB04KT P6SM VCSH SCT025 BKN045
     FM232300 15008KT P6SM SCT035 BKN120
     FM240200 VRB03KT P6SM FEW030
     FM241300 14008KT P6SM SCT035=



000
FTUS42 KMFL 232106 AAA
TAFFLL
TAF AMD
KFLL 232106Z 2321/2418 VRB04KT P6SM VCSH SCT025 BKN045
     FM232300 15008KT P6SM SCT035 BKN120
     FM240200 VRB03KT P6SM FEW030
     FM241300 14008KT P6SM SCT035=



000
FTUS42 KMFL 232103 AAA
TAFPBI
TAF AMD
KPBI 232103Z 2321/2418 17006KT P6SM VCSH SCT035 BKN250
     FM232300 16008KT P6SM SCT035 SCT150
     FM240700 VRB03KT P6SM FEW030
     FM241400 14008KT P6SM SCT035=



000
FTUS42 KMFL 232103 AAA
TAFPBI
TAF AMD
KPBI 232103Z 2321/2418 17006KT P6SM VCSH SCT035 BKN250
     FM232300 16008KT P6SM SCT035 SCT150
     FM240700 VRB03KT P6SM FEW030
     FM241400 14008KT P6SM SCT035=



000
FTUS42 KMFL 231738
TAFPBI
TAF
KPBI 231738Z 2318/2418 VRB04KT P6SM SHRA SCT025 BKN040
      TEMPO 2318/2320 3SM TSRA BKN025CB
     FM232000 16010KT P6SM VCTS SCT035CB BKN120
     FM232200 16008KT P6SM SCT035 SCT150
     FM240700 VRB03KT P6SM FEW030
     FM241400 14008KT P6SM SCT035=



000
FTUS42 KMFL 231738
TAFAPF
TAF
KAPF 231738Z 2318/2418 23006KT P6SM VCSH SCT025 SCT150
     FM232300 23005KT P6SM SCT030 BKN120
     FM240100 VRB02KT P6SM FEW030
     FM241500 23008KT P6SM SCT035=



000
FTUS42 KMFL 231738
TAFMIA
TAF
KMIA 231738Z 2318/2418 VRB05KT P6SM VCTS SCT025CB BKN040
     FM232000 13008KT P6SM SCT035 BKN120
     FM240100 VRB03KT P6SM FEW030
     FM241400 14006KT P6SM SCT035=



000
FTUS42 KMFL 231738
TAFFLL
TAF
KFLL 231738Z 2318/2418 VRB04KT P6SM VCTS SCT025CB BKN045
     FM232000 15008KT P6SM SCT035 BKN120
     FM240200 VRB03KT P6SM FEW030
     FM241300 14008KT P6SM SCT035=



000
FTUS42 KMFL 231738
TAFFLL
TAF
KFLL 231738Z 2318/2418 VRB04KT P6SM VCTS SCT025CB BKN045
     FM232000 15008KT P6SM SCT035 BKN120
     FM240200 VRB03KT P6SM FEW030
     FM241300 14008KT P6SM SCT035=



000
FTUS42 KMFL 231738
TAFAPF
TAF
KAPF 231738Z 2318/2418 23006KT P6SM VCSH SCT025 SCT150
     FM232300 23005KT P6SM SCT030 BKN120
     FM240100 VRB02KT P6SM FEW030
     FM241500 23008KT P6SM SCT035=



000
FTUS42 KMFL 231738
TAFMIA
TAF
KMIA 231738Z 2318/2418 VRB05KT P6SM VCTS SCT025CB BKN040
     FM232000 13008KT P6SM SCT035 BKN120
     FM240100 VRB03KT P6SM FEW030
     FM241400 14006KT P6SM SCT035=



000
FTUS42 KMFL 231738
TAFPBI
TAF
KPBI 231738Z 2318/2418 VRB04KT P6SM SHRA SCT025 BKN040
      TEMPO 2318/2320 3SM TSRA BKN025CB
     FM232000 16010KT P6SM VCTS SCT035CB BKN120
     FM232200 16008KT P6SM SCT035 SCT150
     FM240700 VRB03KT P6SM FEW030
     FM241400 14008KT P6SM SCT035=



000
FTUS42 KMFL 231514 AAB
TAFFLL
TAF AMD
KFLL 231514Z 2315/2412 15010KT P6SM VCTS SCT025CB BKN050
      TEMPO 2315/2317 TSRA BKN025CB
     FM232000 13010KT P6SM SCT035 BKN120
     FM240200 14005KT P6SM FEW030=



000
FTUS42 KMFL 231514 AAB
TAFAPF
TAF AMD
KAPF 231514Z 2315/2412 VRB03KT P6SM FEW250
     FM231700 24008KT P6SM VCTS SCT025CB BKN050
     FM232300 22005KT P6SM SCT030 BKN120
     FM240100 VRB02KT P6SM FEW030=



000
FTUS42 KMFL 231514 AAB
TAFPBI
TAF AMD
KPBI 231514Z 2315/2412 16008KT P6SM VCTS SCT025CB BKN040
      TEMPO 2315/2317 TSRA BKN025CB
     FM232000 14008KT P6SM SCT035 BKN120
     FM240700 VRB03KT P6SM FEW030=



000
FTUS42 KMFL 231514 AAB
TAFMIA
TAF AMD
KMIA 231514Z 2315/2412 VRB05KT P6SM VCTS SCT025CB BKN050
      TEMPO 2315/2317 TSRA BKN025CB
     FM232000 12008KT P6SM SCT035 BKN120
     FM240100 VRB03KT P6SM FEW030=



000
FTUS42 KMFL 231514 AAB
TAFAPF
TAF AMD
KAPF 231514Z 2315/2412 VRB03KT P6SM FEW250
     FM231700 24008KT P6SM VCTS SCT025CB BKN050
     FM232300 22005KT P6SM SCT030 BKN120
     FM240100 VRB02KT P6SM FEW030=



000
FTUS42 KMFL 231514 AAB
TAFFLL
TAF AMD
KFLL 231514Z 2315/2412 15010KT P6SM VCTS SCT025CB BKN050
      TEMPO 2315/2317 TSRA BKN025CB
     FM232000 13010KT P6SM SCT035 BKN120
     FM240200 14005KT P6SM FEW030=



000
FTUS42 KMFL 231514 AAB
TAFPBI
TAF AMD
KPBI 231514Z 2315/2412 16008KT P6SM VCTS SCT025CB BKN040
      TEMPO 2315/2317 TSRA BKN025CB
     FM232000 14008KT P6SM SCT035 BKN120
     FM240700 VRB03KT P6SM FEW030=



000
FTUS42 KMFL 231514 AAB
TAFMIA
TAF AMD
KMIA 231514Z 2315/2412 VRB05KT P6SM VCTS SCT025CB BKN050
      TEMPO 2315/2317 TSRA BKN025CB
     FM232000 12008KT P6SM SCT035 BKN120
     FM240100 VRB03KT P6SM FEW030=



000
FTUS42 KMFL 231445 AAA
TAFMIA
TAF AMD
KMIA 231445Z 2315/2412 VRB05KT P6SM VCTS SCT025CB BKN050
     FM232000 12008KT P6SM SCT035 BKN120
     FM240100 VRB03KT P6SM FEW030=



000
FTUS42 KMFL 231445 AAA
TAFPBI
TAF AMD
KPBI 231445Z 2315/2412 16008KT P6SM VCTS SCT025CB BKN040
     FM232000 14008KT P6SM SCT035 BKN120
     FM240700 VRB03KT P6SM FEW030=



000
FTUS42 KMFL 231445 AAA
TAFAPF
TAF AMD
KAPF 231445Z 2315/2412 VRB03KT P6SM FEW250
     FM231700 24008KT P6SM VCTS SCT025CB BKN050
     FM232300 22005KT P6SM SCT030 BKN120
     FM240100 VRB02KT P6SM FEW030=



000
FTUS42 KMFL 231445 AAA
TAFPBI
TAF AMD
KPBI 231445Z 2315/2412 16008KT P6SM VCTS SCT025CB BKN040
     FM232000 14008KT P6SM SCT035 BKN120
     FM240700 VRB03KT P6SM FEW030=



000
FTUS42 KMFL 231445 AAA
TAFMIA
TAF AMD
KMIA 231445Z 2315/2412 VRB05KT P6SM VCTS SCT025CB BKN050
     FM232000 12008KT P6SM SCT035 BKN120
     FM240100 VRB03KT P6SM FEW030=



000
FTUS42 KMFL 231445 AAA
TAFFLL
TAF AMD
KFLL 231445Z 2315/2412 15010KT P6SM VCTS SCT025CB BKN050
     FM232000 13010KT P6SM SCT035 BKN120
     FM240200 14005KT P6SM FEW030=



000
FTUS42 KMFL 231445 AAA
TAFAPF
TAF AMD
KAPF 231445Z 2315/2412 VRB03KT P6SM FEW250
     FM231700 24008KT P6SM VCTS SCT025CB BKN050
     FM232300 22005KT P6SM SCT030 BKN120
     FM240100 VRB02KT P6SM FEW030=



000
FTUS42 KMFL 231125
TAFAPF
TAF
KAPF 231125Z 2312/2412 VRB03KT P6SM FEW250
     FM231700 24008KT P6SM VCTS SCT025CB BKN050
     FM232300 22005KT P6SM SCT030 BKN120
     FM240100 VRB02KT P6SM FEW030=



000
FTUS42 KMFL 231125
TAFPBI
TAF
KPBI 231125Z 2312/2412 VRB03KT P6SM SCT020 SCT150
     FM231500 15008KT P6SM VCTS SCT030CB BKN050
     FM232000 14008KT P6SM SCT035 BKN120
     FM240700 VRB03KT P6SM FEW030=



000
FTUS42 KMFL 231125
TAFMIA
TAF
KMIA 231125Z 2312/2412 VRB03KT P6SM SCT025 SCT250
     FM231500 14008KT P6SM VCTS SCT025CB BKN050
     FM232000 12008KT P6SM SCT035 BKN120
     FM240100 VRB03KT P6SM FEW030=



000
FTUS42 KMFL 231125
TAFPBI
TAF
KPBI 231125Z 2312/2412 VRB03KT P6SM SCT020 SCT150
     FM231500 15008KT P6SM VCTS SCT030CB BKN050
     FM232000 14008KT P6SM SCT035 BKN120
     FM240700 VRB03KT P6SM FEW030=



000
FTUS42 KMFL 231125
TAFFLL
TAF
KFLL 231125Z 2312/2412 VRB03KT P6SM VCSH SCT020 SCT050 SCT200
     FM231500 14010KT P6SM VCTS SCT025CB BKN050
     FM232000 13010KT P6SM SCT035 BKN120
     FM240200 14005KT P6SM FEW030=



000
FTUS42 KMFL 231125
TAFFLL
TAF
KFLL 231125Z 2312/2412 VRB03KT P6SM VCSH SCT020 SCT050 SCT200
     FM231500 14010KT P6SM VCTS SCT025CB BKN050
     FM232000 13010KT P6SM SCT035 BKN120
     FM240200 14005KT P6SM FEW030=



000
FTUS42 KMFL 231125
TAFMIA
TAF
KMIA 231125Z 2312/2412 VRB03KT P6SM SCT025 SCT250
     FM231500 14008KT P6SM VCTS SCT025CB BKN050
     FM232000 12008KT P6SM SCT035 BKN120
     FM240100 VRB03KT P6SM FEW030=



000
FTUS42 KMFL 231125
TAFAPF
TAF
KAPF 231125Z 2312/2412 VRB03KT P6SM FEW250
     FM231700 24008KT P6SM VCTS SCT025CB BKN050
     FM232300 22005KT P6SM SCT030 BKN120
     FM240100 VRB02KT P6SM FEW030=



000
FTUS42 KMFL 230733 AAA
TAFFLL
TAF AMD
KFLL 230733Z 2308/2406 VRB03KT P6SM VCSH SCT020 SCT250
     FM231500 15008KT P6SM VCTS SCT025CB BKN050
     FM232300 15005KT P6SM FEW030 SCT120=



000
FTUS42 KMFL 230733 AAA
TAFMIA
TAF AMD
KMIA 230733Z 2308/2406 VRB03KT P6SM FEW030 SCT250
     FM231500 15008KT P6SM VCTS SCT025CB BKN050
     FM232300 15003KT P6SM FEW030 SCT120=



000
FTUS42 KMFL 230733 AAA
TAFPBI
TAF AMD
KPBI 230733Z 2308/2406 VRB03KT P6SM VCSH SCT020 SCT250
     FM231500 15008KT P6SM VCTS SCT030CB BKN050
     FM232300 15003KT P6SM FEW030 SCT120=



000
FTUS42 KMFL 230733 AAA
TAFAPF
TAF AMD
KAPF 230733Z 2308/2406 09005KT P6SM FEW030 SCT250
     FM231600 24008KT P6SM VCTS SCT025CB BKN050
     FM232300 VRB05KT P6SM VCSH SCT030 BKN120
     FM240100 08002KT P6SM FEW030 SCT250=



000
FTUS42 KMFL 230733 AAA
TAFAPF
TAF AMD
KAPF 230733Z 2308/2406 09005KT P6SM FEW030 SCT250
     FM231600 24008KT P6SM VCTS SCT025CB BKN050
     FM232300 VRB05KT P6SM VCSH SCT030 BKN120
     FM240100 08002KT P6SM FEW030 SCT250=



000
FTUS42 KMFL 230733 AAA
TAFFLL
TAF AMD
KFLL 230733Z 2308/2406 VRB03KT P6SM VCSH SCT020 SCT250
     FM231500 15008KT P6SM VCTS SCT025CB BKN050
     FM232300 15005KT P6SM FEW030 SCT120=



000
FTUS42 KMFL 230733 AAA
TAFPBI
TAF AMD
KPBI 230733Z 2308/2406 VRB03KT P6SM VCSH SCT020 SCT250
     FM231500 15008KT P6SM VCTS SCT030CB BKN050
     FM232300 15003KT P6SM FEW030 SCT120=



000
FTUS42 KMFL 230733 AAA
TAFMIA
TAF AMD
KMIA 230733Z 2308/2406 VRB03KT P6SM FEW030 SCT250
     FM231500 15008KT P6SM VCTS SCT025CB BKN050
     FM232300 15003KT P6SM FEW030 SCT120=



000
FTUS42 KMFL 230540
TAFMIA
TAF
KMIA 230540Z 2306/2406 VRB03KT P6SM FEW030 SCT250
     FM231500 15008KT P6SM VCTS SCT025CB BKN050
     FM232300 15003KT P6SM FEW030 SCT120=



000
FTUS42 KMFL 230540
TAFFLL
TAF
KFLL 230540Z 2306/2406 VRB03KT P6SM SCT020 SCT250
     FM231500 15008KT P6SM VCTS SCT025CB BKN050
     FM232300 15005KT P6SM FEW030 SCT120=



000
FTUS42 KMFL 230540
TAFPBI
TAF
KPBI 230540Z 2306/2406 VRB03KT P6SM FEW020 SCT250
     FM231500 15008KT P6SM VCTS SCT030CB BKN050
     FM232300 15003KT P6SM FEW030 SCT120=



000
FTUS42 KMFL 230540
TAFAPF
TAF
KAPF 230540Z 2306/2406 09005KT P6SM FEW030 SCT250
     FM231600 24008KT P6SM VCTS SCT025CB BKN050
     FM232300 VRB05KT P6SM VCSH SCT030 BKN120
     FM240100 08002KT P6SM FEW030 SCT250=



000
FTUS42 KMFL 230540
TAFAPF
TAF
KAPF 230540Z 2306/2406 09005KT P6SM FEW030 SCT250
     FM231600 24008KT P6SM VCTS SCT025CB BKN050
     FM232300 VRB05KT P6SM VCSH SCT030 BKN120
     FM240100 08002KT P6SM FEW030 SCT250=



000
FTUS42 KMFL 230540
TAFMIA
TAF
KMIA 230540Z 2306/2406 VRB03KT P6SM FEW030 SCT250
     FM231500 15008KT P6SM VCTS SCT025CB BKN050
     FM232300 15003KT P6SM FEW030 SCT120=



000
FTUS42 KMFL 230540
TAFFLL
TAF
KFLL 230540Z 2306/2406 VRB03KT P6SM SCT020 SCT250
     FM231500 15008KT P6SM VCTS SCT025CB BKN050
     FM232300 15005KT P6SM FEW030 SCT120=



000
FTUS42 KMFL 230540
TAFPBI
TAF
KPBI 230540Z 2306/2406 VRB03KT P6SM FEW020 SCT250
     FM231500 15008KT P6SM VCTS SCT030CB BKN050
     FM232300 15003KT P6SM FEW030 SCT120=



000
FTUS42 KMFL 230520
TAFFLL
TAF
KFLL 230520Z 2306/2406 VRB03KT P6SM FEW040 SCT250
     FM231500 15008KT P6SM VCTS SCT025CB BKN050=



000
FTUS42 KMFL 230520
TAFAPF
TAF
KAPF 230520Z 2306/2406 VRB02KT P6SM FEW030 SCT250
     FM231600 24008KT P6SM VCTS SCT025CB BKN050=



000
FTUS42 KMFL 230520
TAFPBI
TAF
KPBI 230520Z 2306/2406 VRB02KT P6SM FEW030 SCT250
     FM231500 15008KT P6SM VCTS SCT025CB BKN050=



000
FTUS42 KMFL 230520
TAFFLL
TAF
KFLL 230520Z 2306/2406 VRB03KT P6SM FEW040 SCT250
     FM231500 15008KT P6SM VCTS SCT025CB BKN050=



000
FTUS42 KMFL 230520
TAFMIA
TAF
KMIA 230520Z 2306/2406 VRB02KT P6SM FEW030 SCT250
     FM231500 15008KT P6SM VCTS SCT025CB BKN050=



000
FTUS42 KMFL 230520
TAFMIA
TAF
KMIA 230520Z 2306/2406 VRB02KT P6SM FEW030 SCT250
     FM231500 15008KT P6SM VCTS SCT025CB BKN050=



000
FTUS42 KMFL 230520
TAFAPF
TAF
KAPF 230520Z 2306/2406 VRB02KT P6SM FEW030 SCT250
     FM231600 24008KT P6SM VCTS SCT025CB BKN050=



000
FTUS42 KMFL 230520
TAFPBI
TAF
KPBI 230520Z 2306/2406 VRB02KT P6SM FEW030 SCT250
     FM231500 15008KT P6SM VCTS SCT025CB BKN050=



000
FTUS42 KMFL 222327
TAFAPF
TAF
KAPF 222327Z 2300/2324 VRB04KT P6SM FEW150
     FM231600 24008KT P6SM VCTS SCT025CB BKN050=



000
FTUS42 KMFL 222327
TAFFLL
TAF
KFLL 222327Z 2300/2324 VRB04KT P6SM FEW035 SCT150
     FM231500 15008KT P6SM VCTS SCT025CB BKN050=



000
FTUS42 KMFL 222327
TAFMIA
TAF
KMIA 222327Z 2300/2324 VRB04KT P6SM FEW035 SCT150
     FM231500 15008KT P6SM VCTS SCT025CB BKN050=



000
FTUS42 KMFL 222327
TAFPBI
TAF
KPBI 222327Z 2300/2324 VRB04KT P6SM SCT025 SCT150
     FM231500 15008KT P6SM VCTS SCT025CB BKN050=



000
FTUS42 KMFL 222327
TAFFLL
TAF
KFLL 222327Z 2300/2324 VRB04KT P6SM FEW035 SCT150
     FM231500 15008KT P6SM VCTS SCT025CB BKN050=



000
FTUS42 KMFL 222327
TAFPBI
TAF
KPBI 222327Z 2300/2324 VRB04KT P6SM SCT025 SCT150
     FM231500 15008KT P6SM VCTS SCT025CB BKN050=



000
FTUS42 KMFL 222327
TAFMIA
TAF
KMIA 222327Z 2300/2324 VRB04KT P6SM FEW035 SCT150
     FM231500 15008KT P6SM VCTS SCT025CB BKN050=



000
FTUS42 KMFL 222327
TAFAPF
TAF
KAPF 222327Z 2300/2324 VRB04KT P6SM FEW150
     FM231600 24008KT P6SM VCTS SCT025CB BKN050=



000
FTUS42 KMFL 222232 AAB
TAFFLL
TAF AMD
KFLL 222232Z 2223/2318 VRB04KT P6SM VCSH FEW020 BKN120
     FM222330 VRB04KT P6SM FEW025 BKN120
     FM231500 15008KT P6SM VCTS SCT025CB SCT050 SCT250=



000
FTUS42 KMFL 222232 AAB
TAFFLL
TAF AMD
KFLL 222232Z 2223/2318 VRB04KT P6SM VCSH FEW020 BKN120
     FM222330 VRB04KT P6SM FEW025 BKN120
     FM231500 15008KT P6SM VCTS SCT025CB SCT050 SCT250=



000
FTUS42 KMFL 222229 AAC
TAFPBI
TAF AMD
KPBI 222229Z 2222/2318 VRB04KT P6SM VCSH SCT025 BKN150
     FM222315 VRB03KT P6SM FEW025 BKN150
     FM231500 15008KT P6SM VCTS SCT025CB SCT050 SCT250=



000
FTUS42 KMFL 222229 AAC
TAFPBI
TAF AMD
KPBI 222229Z 2222/2318 VRB04KT P6SM VCSH SCT025 BKN150
     FM222315 VRB03KT P6SM FEW025 BKN150
     FM231500 15008KT P6SM VCTS SCT025CB SCT050 SCT250=



000
FTUS42 KMFL 222123 AAA
TAFAPF
TAF AMD
KAPF 222123Z 2221/2318 VRB05KT P6SM SCT100
     FM231700 23008KT P6SM VCTS SCT030CB BKN050=



000
FTUS42 KMFL 222123 AAA
TAFAPF
TAF AMD
KAPF 222123Z 2221/2318 VRB05KT P6SM SCT100
     FM231700 23008KT P6SM VCTS SCT030CB BKN050=



000
FTUS42 KMFL 222115 AAA
TAFMIA
TAF AMD
KMIA 222115Z 2221/2318 17008KT P6SM FEW020 SCT150 BKN250
     FM231500 15008KT P6SM SCT025 SCT050 SCT250=



000
FTUS42 KMFL 222115 AAA
TAFMIA
TAF AMD
KMIA 222115Z 2221/2318 17008KT P6SM FEW020 SCT150 BKN250
     FM231500 15008KT P6SM SCT025 SCT050 SCT250=



000
FTUS42 KMFL 222111 AAA
TAFFLL
TAF AMD
KFLL 222111Z 2221/2318 VRB05KT P6SM VCSH SCT025 BKN250
     FM222300 VRB03KT P6SM VCSH FEW020 SCT080 BKN120
     FM231500 15008KT P6SM VCTS SCT025CB SCT050 SCT250=



000
FTUS42 KMFL 222111 AAA
TAFFLL
TAF AMD
KFLL 222111Z 2221/2318 VRB05KT P6SM VCSH SCT025 BKN250
     FM222300 VRB03KT P6SM VCSH FEW020 SCT080 BKN120
     FM231500 15008KT P6SM VCTS SCT025CB SCT050 SCT250=



000
FTUS42 KMFL 222110 AAB
TAFPBI
TAF AMD
KPBI 222110Z 2221/2318 10010KT P6SM VCTS BKN025CB
     FM222300 VRB03KT P6SM VCSH FEW020 SCT080 BKN120
     FM231500 15008KT P6SM VCTS SCT025CB SCT050 SCT250=



000
FTUS42 KMFL 222110 AAB
TAFPBI
TAF AMD
KPBI 222110Z 2221/2318 10010KT P6SM VCTS BKN025CB
     FM222300 VRB03KT P6SM VCSH FEW020 SCT080 BKN120
     FM231500 15008KT P6SM VCTS SCT025CB SCT050 SCT250=



000
FTUS42 KMFL 222002 AAA
TAFPBI
TAF AMD
KPBI 222002Z 2220/2318 26007KT P6SM VCTS SCT025 BKN040CB
     FM222115 VRB03KT P6SM VCSH FEW020 SCT080 BKN120
     FM231500 15008KT P6SM VCTS SCT025CB SCT050 SCT250=



000
FTUS42 KMFL 222002 AAA
TAFPBI
TAF AMD
KPBI 222002Z 2220/2318 26007KT P6SM VCTS SCT025 BKN040CB
     FM222115 VRB03KT P6SM VCSH FEW020 SCT080 BKN120
     FM231500 15008KT P6SM VCTS SCT025CB SCT050 SCT250=



000
FTUS42 KMFL 221740
TAFFLL
TAF
KFLL 221740Z 2218/2318 17008KT P6SM VCSH FEW025 SCT045 BKN100
     FM222300 VRB03KT P6SM VCSH FEW020 SCT080 BKN120
     FM231500 15008KT P6SM VCTS SCT025CB SCT050 SCT250=



000
FTUS42 KMFL 221740
TAFPBI
TAF
KPBI 221740Z 2218/2318 23007KT P6SM VCSH SCT025 SCT060 BKN250
     FM222300 VRB03KT P6SM VCSH FEW020 SCT080 BKN120
     FM231500 15008KT P6SM VCTS SCT025CB SCT050 SCT250=



000
FTUS42 KMFL 221740
TAFMIA
TAF
KMIA 221740Z 2218/2318 17008KT P6SM VCSH FEW020 SCT180 OVC300
     FM222300 VRB03KT P6SM VCSH FEW020 SCT080 BKN120
     FM231500 15008KT P6SM SCT025 SCT050 SCT250=



000
FTUS42 KMFL 221740
TAFAPF
TAF
KAPF 221740Z 2218/2318 VRB05KT 5SM TSRA FEW010 SCT035CB OVC080
      TEMPO 2218/2219 3SM TSRA BKN035CB
     FM222300 VRB05KT P6SM VCSH SCT020 BKN120 BKN250
     FM230100 07003KT P6SM FEW020 SCT250=



000
FTUS42 KMFL 221740
TAFPBI
TAF
KPBI 221740Z 2218/2318 23007KT P6SM VCSH SCT025 SCT060 BKN250
     FM222300 VRB03KT P6SM VCSH FEW020 SCT080 BKN120
     FM231500 15008KT P6SM VCTS SCT025CB SCT050 SCT250=



000
FTUS42 KMFL 221740
TAFAPF
TAF
KAPF 221740Z 2218/2318 VRB05KT 5SM TSRA FEW010 SCT035CB OVC080
      TEMPO 2218/2219 3SM TSRA BKN035CB
     FM222300 VRB05KT P6SM VCSH SCT020 BKN120 BKN250
     FM230100 07003KT P6SM FEW020 SCT250=



000
FTUS42 KMFL 221740
TAFFLL
TAF
KFLL 221740Z 2218/2318 17008KT P6SM VCSH FEW025 SCT045 BKN100
     FM222300 VRB03KT P6SM VCSH FEW020 SCT080 BKN120
     FM231500 15008KT P6SM VCTS SCT025CB SCT050 SCT250=



000
FTUS42 KMFL 221740
TAFMIA
TAF
KMIA 221740Z 2218/2318 17008KT P6SM VCSH FEW020 SCT180 OVC300
     FM222300 VRB03KT P6SM VCSH FEW020 SCT080 BKN120
     FM231500 15008KT P6SM SCT025 SCT050 SCT250=



000
FTUS42 KMFL 221712 AAB
TAFAPF
TAF AMD
KAPF 221712Z 2217/2312 VRB06KT 3SM TSRA SCT010CB BKN020 OVC030
      TEMPO 2217/2218 1SM +TSRA BKN015CB
     FM222300 VRB05KT P6SM VCSH SCT020 BKN120 BKN250
     FM230100 07003KT P6SM FEW020 SCT250=



000
FTUS42 KMFL 221712 AAB
TAFAPF
TAF AMD
KAPF 221712Z 2217/2312 VRB06KT 3SM TSRA SCT010CB BKN020 OVC030
      TEMPO 2217/2218 1SM +TSRA BKN015CB
     FM222300 VRB05KT P6SM VCSH SCT020 BKN120 BKN250
     FM230100 07003KT P6SM FEW020 SCT250=



000
FTUS42 KMFL 221453 AAA
TAFPBI
TAF AMD
KPBI 221453Z 2215/2312 16007KT P6SM VCTS SCT025CB BKN035 BKN070
     FM222300 16003KT P6SM VCSH FEW020 SCT080 BKN120=



000
FTUS42 KMFL 221453 AAA
TAFFLL
TAF AMD
KFLL 221453Z 2215/2312 15007KT P6SM VCTS SCT025CB SCT080 BKN200
     FM222300 16003KT P6SM VCSH FEW020 SCT080 BKN120=



000
FTUS42 KMFL 221453 AAA
TAFMIA
TAF AMD
KMIA 221453Z 2215/2312 16006KT P6SM VCTS SCT025CB BKN170 BKN300
     FM222300 17003KT P6SM VCSH FEW020 SCT080 BKN120=



000
FTUS42 KMFL 221453 AAA
TAFAPF
TAF AMD
KAPF 221453Z 2215/2312 22008KT P6SM VCTS SCT020CB SCT090 SCT250
     FM222300 VRB05KT P6SM VCSH SCT020 BKN120 BKN250
     FM230100 07003KT P6SM FEW020 SCT250=



000
FTUS42 KMFL 221453 AAA
TAFFLL
TAF AMD
KFLL 221453Z 2215/2312 15007KT P6SM VCTS SCT025CB SCT080 BKN200
     FM222300 16003KT P6SM VCSH FEW020 SCT080 BKN120=



000
FTUS42 KMFL 221453 AAA
TAFPBI
TAF AMD
KPBI 221453Z 2215/2312 16007KT P6SM VCTS SCT025CB BKN035 BKN070
     FM222300 16003KT P6SM VCSH FEW020 SCT080 BKN120=



000
FTUS42 KMFL 221453 AAA
TAFMIA
TAF AMD
KMIA 221453Z 2215/2312 16006KT P6SM VCTS SCT025CB BKN170 BKN300
     FM222300 17003KT P6SM VCSH FEW020 SCT080 BKN120=



000
FTUS42 KMFL 221453 AAA
TAFAPF
TAF AMD
KAPF 221453Z 2215/2312 22008KT P6SM VCTS SCT020CB SCT090 SCT250
     FM222300 VRB05KT P6SM VCSH SCT020 BKN120 BKN250
     FM230100 07003KT P6SM FEW020 SCT250=



000
FTUS42 KMFL 221135
TAFFLL
TAF
KFLL 221135Z 2212/2312 VRB03KT P6SM VCSH SCT020 BKN060 BKN250
     FM221400 14008KT P6SM VCTS SCT030CB BKN050 BKN250
     FM222300 16003KT P6SM VCSH FEW020 SCT080 BKN120=



000
FTUS42 KMFL 221135
TAFMIA
TAF
KMIA 221135Z 2212/2312 VRB03KT P6SM VCSH FEW010 SCT025 BKN250
      TEMPO 2212/2213 BKN025
     FM221400 14008KT P6SM VCTS SCT030CB BKN050 BKN250
     FM222300 17003KT P6SM VCSH FEW020 SCT080 BKN120=



000
FTUS42 KMFL 221135
TAFPBI
TAF
KPBI 221135Z 2212/2312 VRB03KT P6SM VCSH FEW025 SCT130 BKN200
     FM221400 14008KT P6SM VCTS SCT030CB BKN050 BKN250
     FM222300 16003KT P6SM VCSH FEW020 SCT080 BKN120=



000
FTUS42 KMFL 221135
TAFAPF
TAF
KAPF 221135Z 2212/2312 08005KT P6SM SCT250
     FM221500 28007KT P6SM VCTS SCT030CB BKN050 BKN250
     FM222300 VRB05KT P6SM VCSH SCT020 BKN120 BKN250
     FM230100 07003KT P6SM FEW020 SCT250=



000
FTUS42 KMFL 221135
TAFFLL
TAF
KFLL 221135Z 2212/2312 VRB03KT P6SM VCSH SCT020 BKN060 BKN250
     FM221400 14008KT P6SM VCTS SCT030CB BKN050 BKN250
     FM222300 16003KT P6SM VCSH FEW020 SCT080 BKN120=



000
FTUS42 KMFL 221135
TAFMIA
TAF
KMIA 221135Z 2212/2312 VRB03KT P6SM VCSH FEW010 SCT025 BKN250
      TEMPO 2212/2213 BKN025
     FM221400 14008KT P6SM VCTS SCT030CB BKN050 BKN250
     FM222300 17003KT P6SM VCSH FEW020 SCT080 BKN120=



000
FTUS42 KMFL 221135
TAFAPF
TAF
KAPF 221135Z 2212/2312 08005KT P6SM SCT250
     FM221500 28007KT P6SM VCTS SCT030CB BKN050 BKN250
     FM222300 VRB05KT P6SM VCSH SCT020 BKN120 BKN250
     FM230100 07003KT P6SM FEW020 SCT250=



000
FTUS42 KMFL 221135
TAFPBI
TAF
KPBI 221135Z 2212/2312 VRB03KT P6SM VCSH FEW025 SCT130 BKN200
     FM221400 14008KT P6SM VCTS SCT030CB BKN050 BKN250
     FM222300 16003KT P6SM VCSH FEW020 SCT080 BKN120=



000
FTUS42 KMFL 221120
TAFPBI
TAF
KPBI 221120Z 2212/2312 VRB05KT P6SM VCSH FEW020 SCT040
     FM221400 14008KT P6SM VCTS SCT030CB BKN050
     FM222300 16003KT P6SM VCSH FEW020 SCT080 BKN120=



000
FTUS42 KMFL 221120
TAFFLL
TAF
KFLL 221120Z 2212/2312 VRB05KT P6SM VCSH FEW020 SCT040
     FM221400 14008KT P6SM VCTS SCT030CB BKN050
     FM222300 16003KT P6SM VCSH FEW020 SCT080 BKN120=



000
FTUS42 KMFL 221120
TAFMIA
TAF
KMIA 221120Z 2212/2312 VRB05KT P6SM VCSH FEW022 SCT045 BKN250
     FM221400 14008KT P6SM VCTS SCT030CB BKN050
     FM222300 17003KT P6SM VCSH FEW020 SCT080 BKN120=



000
FTUS42 KMFL 221120
TAFMIA
TAF
KMIA 221120Z 2212/2312 VRB05KT P6SM VCSH FEW022 SCT045 BKN250
     FM221400 14008KT P6SM VCTS SCT030CB BKN050
     FM222300 17003KT P6SM VCSH FEW020 SCT080 BKN120=



000
FTUS42 KMFL 221120
TAFAPF
TAF
KAPF 221120Z 2212/2312 05003KT P6SM VCSH SKC
     FM221500 28007KT P6SM VCTS SCT030CB BKN050
     FM222300 VRB05KT P6SM VCSH SCT020 BKN120
     FM230100 07003KT P6SM FEW020 SCT250=



000
FTUS42 KMFL 221120
TAFPBI
TAF
KPBI 221120Z 2212/2312 VRB05KT P6SM VCSH FEW020 SCT040
     FM221400 14008KT P6SM VCTS SCT030CB BKN050
     FM222300 16003KT P6SM VCSH FEW020 SCT080 BKN120=



000
FTUS42 KMFL 221120
TAFFLL
TAF
KFLL 221120Z 2212/2312 VRB05KT P6SM VCSH FEW020 SCT040
     FM221400 14008KT P6SM VCTS SCT030CB BKN050
     FM222300 16003KT P6SM VCSH FEW020 SCT080 BKN120=



000
FTUS42 KMFL 221120
TAFAPF
TAF
KAPF 221120Z 2212/2312 05003KT P6SM VCSH SKC
     FM221500 28007KT P6SM VCTS SCT030CB BKN050
     FM222300 VRB05KT P6SM VCSH SCT020 BKN120
     FM230100 07003KT P6SM FEW020 SCT250=



000
FTUS42 KMFL 220522
TAFAPF
TAF
KAPF 220522Z 2206/2306 06003KT P6SM FEW020 SCT250
     FM221200 12005KT P6SM VCSH SCT020 SCT050
     FM221500 28007KT P6SM VCTS SCT030CB BKN050
     FM222300 VRB05KT P6SM VCSH SCT020 BKN120
     FM230100 07003KT P6SM FEW020 SCT250=



000
FTUS42 KMFL 220522
TAFAPF
TAF
KAPF 220522Z 2206/2306 06003KT P6SM FEW020 SCT250
     FM221200 12005KT P6SM VCSH SCT020 SCT050
     FM221500 28007KT P6SM VCTS SCT030CB BKN050
     FM222300 VRB05KT P6SM VCSH SCT020 BKN120
     FM230100 07003KT P6SM FEW020 SCT250=



000
FTUS42 KMFL 220522
TAFFLL
TAF
KFLL 220522Z 2206/2306 VRB03KT P6SM FEW020 BKN250
     FM221000 16005KT P6SM VCSH SCT020 BKN040
     FM221400 14008KT P6SM VCTS SCT030CB BKN050
     FM222300 16003KT P6SM VCSH FEW020 SCT080 BKN120=



000
FTUS42 KMFL 220522
TAFMIA
TAF
KMIA 220522Z 2206/2306 VRB02KT P6SM FEW020 BKN250
     FM221000 17005KT P6SM VCSH SCT020 BKN040
     FM221500 14008KT P6SM VCTS SCT030CB BKN050
     FM222300 17003KT P6SM VCSH FEW020 SCT080 BKN120=



000
FTUS42 KMFL 220522
TAFMIA
TAF
KMIA 220522Z 2206/2306 VRB02KT P6SM FEW020 BKN250
     FM221000 17005KT P6SM VCSH SCT020 BKN040
     FM221500 14008KT P6SM VCTS SCT030CB BKN050
     FM222300 17003KT P6SM VCSH FEW020 SCT080 BKN120=



000
FTUS42 KMFL 220522
TAFFLL
TAF
KFLL 220522Z 2206/2306 VRB03KT P6SM FEW020 BKN250
     FM221000 16005KT P6SM VCSH SCT020 BKN040
     FM221400 14008KT P6SM VCTS SCT030CB BKN050
     FM222300 16003KT P6SM VCSH FEW020 SCT080 BKN120=



000
FTUS42 KMFL 220522
TAFPBI
TAF
KPBI 220522Z 2206/2306 VRB02KT P6SM SCT020 BKN250
     FM221000 17005KT P6SM VCSH SCT020 BKN040
     FM221500 14008KT P6SM VCTS SCT030CB BKN050
     FM222300 16003KT P6SM VCSH FEW020 SCT080 BKN120=



000
FTUS42 KMFL 220522
TAFPBI
TAF
KPBI 220522Z 2206/2306 VRB02KT P6SM SCT020 BKN250
     FM221000 17005KT P6SM VCSH SCT020 BKN040
     FM221500 14008KT P6SM VCTS SCT030CB BKN050
     FM222300 16003KT P6SM VCSH FEW020 SCT080 BKN120=



000
FTUS42 KMFL 220322 AAA
TAFMIA
TAF AMD
KMIA 220322Z 2203/2224 VRB04KT P6SM FEW015 BKN080 BKN150
     FM220600 VRB04KT P6SM VCSH SCT025 BKN150
     FM221400 15008KT P6SM VCTS SCT030CB BKN050 BKN250=



000
FTUS42 KMFL 220322 AAA
TAFPBI
TAF AMD
KPBI 220322Z 2203/2224 17006KT P6SM SCT020 BKN060 BKN150
     FM220600 VRB04KT P6SM VCSH SCT030 BKN150
     FM221400 14008KT P6SM VCTS SCT030CB BKN050 BKN150=



000
FTUS42 KMFL 220322 AAA
TAFFLL
TAF AMD
KFLL 220322Z 2203/2224 VRB04KT P6SM FEW040 SCT080 BKN250
     FM220600 VRB04KT P6SM VCSH SCT040 BKN150
     FM221400 15008KT P6SM VCTS SCT030CB BKN050 BKN250=



000
FTUS42 KMFL 220322 AAA
TAFAPF
TAF AMD
KAPF 220322Z 2203/2224 VRB05KT P6SM VCSH FEW030 FEW040 SCT080
     FM220400 VRB04KT P6SM SCT100 BKN250
     FM221600 26007KT P6SM VCTS SCT035CB BKN250=



000
FTUS42 KMFL 220322 AAA
TAFAPF
TAF AMD
KAPF 220322Z 2203/2224 VRB05KT P6SM VCSH FEW030 FEW040 SCT080
     FM220400 VRB04KT P6SM SCT100 BKN250
     FM221600 26007KT P6SM VCTS SCT035CB BKN250=



000
FTUS42 KMFL 220322 AAA
TAFPBI
TAF AMD
KPBI 220322Z 2203/2224 17006KT P6SM SCT020 BKN060 BKN150
     FM220600 VRB04KT P6SM VCSH SCT030 BKN150
     FM221400 14008KT P6SM VCTS SCT030CB BKN050 BKN150=



000
FTUS42 KMFL 220322 AAA
TAFFLL
TAF AMD
KFLL 220322Z 2203/2224 VRB04KT P6SM FEW040 SCT080 BKN250
     FM220600 VRB04KT P6SM VCSH SCT040 BKN150
     FM221400 15008KT P6SM VCTS SCT030CB BKN050 BKN250=



000
FTUS42 KMFL 220322 AAA
TAFMIA
TAF AMD
KMIA 220322Z 2203/2224 VRB04KT P6SM FEW015 BKN080 BKN150
     FM220600 VRB04KT P6SM VCSH SCT025 BKN150
     FM221400 15008KT P6SM VCTS SCT030CB BKN050 BKN250=



000
FTUS42 KMFL 212328
TAFFLL
TAF
KFLL 212328Z 2200/2224 VRB04KT P6SM FEW040 SCT080 BKN250
     FM220600 VRB04KT P6SM VCSH SCT040 BKN150
     FM221400 15008KT P6SM VCTS SCT030CB BKN050 BKN250=



000
FTUS42 KMFL 212328
TAFMIA
TAF
KMIA 212328Z 2200/2224 VRB04KT P6SM FEW015 BKN080 BKN150
     FM220600 VRB04KT P6SM VCSH SCT025 BKN150
     FM221400 15008KT P6SM VCTS SCT030CB BKN050 BKN250=



000
FTUS42 KMFL 212328
TAFPBI
TAF
KPBI 212328Z 2200/2224 17006KT P6SM SCT020 BKN060 BKN150
     FM220600 VRB04KT P6SM VCSH SCT030 BKN150
     FM221400 14008KT P6SM VCTS SCT030CB BKN050 BKN150=



000
FTUS42 KMFL 212328
TAFAPF
TAF
KAPF 212328Z 2200/2224 VRB05KT P6SM VCSH FEW030 FEW040 SCT080
     FM220400 VRB04KT P6SM SCT100 BKN250
     FM221600 26007KT P6SM VCTS SCT035CB BKN250=



000
FTUS42 KMFL 212328
TAFAPF
TAF
KAPF 212328Z 2200/2224 VRB05KT P6SM VCSH FEW030 FEW040 SCT080
     FM220400 VRB04KT P6SM SCT100 BKN250
     FM221600 26007KT P6SM VCTS SCT035CB BKN250=



000
FTUS42 KMFL 212328
TAFMIA
TAF
KMIA 212328Z 2200/2224 VRB04KT P6SM FEW015 BKN080 BKN150
     FM220600 VRB04KT P6SM VCSH SCT025 BKN150
     FM221400 15008KT P6SM VCTS SCT030CB BKN050 BKN250=



000
FTUS42 KMFL 212328
TAFFLL
TAF
KFLL 212328Z 2200/2224 VRB04KT P6SM FEW040 SCT080 BKN250
     FM220600 VRB04KT P6SM VCSH SCT040 BKN150
     FM221400 15008KT P6SM VCTS SCT030CB BKN050 BKN250=



000
FTUS42 KMFL 212328
TAFPBI
TAF
KPBI 212328Z 2200/2224 17006KT P6SM SCT020 BKN060 BKN150
     FM220600 VRB04KT P6SM VCSH SCT030 BKN150
     FM221400 14008KT P6SM VCTS SCT030CB BKN050 BKN150=



000
FTUS42 KMFL 212108 AAB
TAFFLL
TAF AMD
KFLL 212108Z 2121/2218 VRB04KT P6SM -RA FEW025 SCT040 SCT080
     FM220000 09005KT P6SM BKN250
     FM221400 15008KT P6SM VCSH SCT030 BKN250=



000
FTUS42 KMFL 212108 AAA
TAFMIA
TAF AMD
KMIA 212108Z 2121/2218 VRB04KT P6SM VCSH FEW015 SCT050 BKN080
     FM220000 09005KT P6SM BKN250
     FM221400 15008KT P6SM VCSH SCT030 BKN250=



000
FTUS42 KMFL 212108 AAA
TAFAPF
TAF AMD
KAPF 212108Z 2121/2218 VRB05KT P6SM VCTS SCT040CB SCT100
     FM220000 05004KT P6SM BKN250
     FM221600 23007KT P6SM VCSH SCT035 BKN250=



000
FTUS42 KMFL 212108 AAA
TAFPBI
TAF AMD
KPBI 212108Z 2121/2218 VRB05KT P6SM VCSH SCT020 BKN050 BKN150
     FM220000 09005KT P6SM BKN250
     FM221400 15008KT P6SM VCSH SCT030 BKN250=



000
FTUS42 KMFL 212108 AAA
TAFPBI
TAF AMD
KPBI 212108Z 2121/2218 VRB05KT P6SM VCSH SCT020 BKN050 BKN150
     FM220000 09005KT P6SM BKN250
     FM221400 15008KT P6SM VCSH SCT030 BKN250=



000
FTUS42 KMFL 212108 AAB
TAFFLL
TAF AMD
KFLL 212108Z 2121/2218 VRB04KT P6SM -RA FEW025 SCT040 SCT080
     FM220000 09005KT P6SM BKN250
     FM221400 15008KT P6SM VCSH SCT030 BKN250=



000
FTUS42 KMFL 212108 AAA
TAFMIA
TAF AMD
KMIA 212108Z 2121/2218 VRB04KT P6SM VCSH FEW015 SCT050 BKN080
     FM220000 09005KT P6SM BKN250
     FM221400 15008KT P6SM VCSH SCT030 BKN250=



000
FTUS42 KMFL 212108 AAA
TAFAPF
TAF AMD
KAPF 212108Z 2121/2218 VRB05KT P6SM VCTS SCT040CB SCT100
     FM220000 05004KT P6SM BKN250
     FM221600 23007KT P6SM VCSH SCT035 BKN250=



000
FTUS42 KMFL 211806 AAA
TAFFLL
TAF AMD
KFLL 211806Z 2118/2218 15010KT P6SM VCTS FEW025CB FEW080 BKN250
      TEMPO 2118/2119 15010G25KT 4SM TSRA BKN030CB
     FM220000 09005KT P6SM BKN250
     FM221400 15008KT P6SM VCSH SCT030 BKN250=



000
FTUS42 KMFL 211806 AAA
TAFFLL
TAF AMD
KFLL 211806Z 2118/2218 15010KT P6SM VCTS FEW025CB FEW080 BKN250
      TEMPO 2118/2119 15010G25KT 4SM TSRA BKN030CB
     FM220000 09005KT P6SM BKN250
     FM221400 15008KT P6SM VCSH SCT030 BKN250=



000
FTUS42 KMFL 211741
TAFFLL
TAF
KFLL 211741Z 2118/2218 15010KT P6SM VCTS FEW025CB FEW080 BKN250
     FM220000 09005KT P6SM BKN250
     FM221400 15008KT P6SM VCSH SCT030 BKN250=



000
FTUS42 KMFL 211741
TAFPBI
TAF
KPBI 211741Z 2118/2218 12012KT P6SM VCTS SCT020CB BKN120 BKN250
     FM220000 09005KT P6SM BKN250
     FM221400 15008KT P6SM VCSH SCT030 BKN250=



000
FTUS42 KMFL 211741
TAFMIA
TAF
KMIA 211741Z 2118/2218 15008KT P6SM VCTS SCT025CB BKN045 OVC200
      TEMPO 2118/2119 24010KT 3SM TSRA BKN020CB
     FM220000 09005KT P6SM BKN250
     FM221400 15008KT P6SM VCSH SCT030 BKN250=



000
FTUS42 KMFL 211741
TAFAPF
TAF
KAPF 211741Z 2118/2218 23009KT P6SM VCTS SCT040CB SCT100
     FM220000 05004KT P6SM BKN250
     FM221600 23007KT P6SM VCSH SCT035 BKN250=



000
FTUS42 KMFL 211741
TAFAPF
TAF
KAPF 211741Z 2118/2218 23009KT P6SM VCTS SCT040CB SCT100
     FM220000 05004KT P6SM BKN250
     FM221600 23007KT P6SM VCSH SCT035 BKN250=



000
FTUS42 KMFL 211741
TAFFLL
TAF
KFLL 211741Z 2118/2218 15010KT P6SM VCTS FEW025CB FEW080 BKN250
     FM220000 09005KT P6SM BKN250
     FM221400 15008KT P6SM VCSH SCT030 BKN250=



000
FTUS42 KMFL 211741
TAFMIA
TAF
KMIA 211741Z 2118/2218 15008KT P6SM VCTS SCT025CB BKN045 OVC200
      TEMPO 2118/2119 24010KT 3SM TSRA BKN020CB
     FM220000 09005KT P6SM BKN250
     FM221400 15008KT P6SM VCSH SCT030 BKN250=



000
FTUS42 KMFL 211741
TAFPBI
TAF
KPBI 211741Z 2118/2218 12012KT P6SM VCTS SCT020CB BKN120 BKN250
     FM220000 09005KT P6SM BKN250
     FM221400 15008KT P6SM VCSH SCT030 BKN250=



000
FTUS42 KMFL 211457 AAA
TAFAPF
TAF AMD
KAPF 211457Z 2115/2212 13004KT P6SM FEW030
     FM211600 27008KT P6SM VCTS SCT030CB BKN250
      TEMPO 2117/2120 5SM TSRA BKN025CB
     FM220000 05004KT P6SM BKN250=



000
FTUS42 KMFL 211457 AAA
TAFMIA
TAF AMD
KMIA 211457Z 2115/2212 13008KT P6SM VCSH FEW025 SCT045 BKN170
     FM211600 11010KT P6SM VCTS SCT030CB BKN250
      TEMPO 2117/2120 5SM TSRA BKN025CB
     FM220000 09005KT P6SM BKN250=



000
FTUS42 KMFL 211457 AAA
TAFAPF
TAF AMD
KAPF 211457Z 2115/2212 13004KT P6SM FEW030
     FM211600 27008KT P6SM VCTS SCT030CB BKN250
      TEMPO 2117/2120 5SM TSRA BKN025CB
     FM220000 05004KT P6SM BKN250=



000
FTUS42 KMFL 211457 AAA
TAFPBI
TAF AMD
KPBI 211457Z 2115/2212 12007KT P6SM VCSH BKN030 BKN050 BKN250
     FM211600 11010KT P6SM VCTS SCT030CB BKN250
      TEMPO 2117/2120 5SM TSRA BKN025CB
     FM220000 09005KT P6SM BKN250=



000
FTUS42 KMFL 211457 AAA
TAFPBI
TAF AMD
KPBI 211457Z 2115/2212 12007KT P6SM VCSH BKN030 BKN050 BKN250
     FM211600 11010KT P6SM VCTS SCT030CB BKN250
      TEMPO 2117/2120 5SM TSRA BKN025CB
     FM220000 09005KT P6SM BKN250=



000
FTUS42 KMFL 211457 AAA
TAFMIA
TAF AMD
KMIA 211457Z 2115/2212 13008KT P6SM VCSH FEW025 SCT045 BKN170
     FM211600 11010KT P6SM VCTS SCT030CB BKN250
      TEMPO 2117/2120 5SM TSRA BKN025CB
     FM220000 09005KT P6SM BKN250=



000
FTUS42 KMFL 211457 AAA
TAFFLL
TAF AMD
KFLL 211457Z 2115/2212 15010KT P6SM VCSH FEW030 FEW080 BKN250
     FM211600 11010KT P6SM VCTS SCT030CB BKN250
      TEMPO 2117/2120 5SM TSRA BKN025CB
     FM220000 09005KT P6SM BKN250=



000
FTUS42 KMFL 211457 AAA
TAFFLL
TAF AMD
KFLL 211457Z 2115/2212 15010KT P6SM VCSH FEW030 FEW080 BKN250
     FM211600 11010KT P6SM VCTS SCT030CB BKN250
      TEMPO 2117/2120 5SM TSRA BKN025CB
     FM220000 09005KT P6SM BKN250=



000
FTUS42 KMFL 211137
TAFMIA
TAF
KMIA 211137Z 2112/2212 VRB03KT P6SM FEW025 SCT150 BKN250
     FM211600 11010KT P6SM VCTS SCT030CB BKN250
      TEMPO 2117/2120 5SM TSRA BKN025CB
     FM220000 09005KT P6SM BKN250=



000
FTUS42 KMFL 211137
TAFFLL
TAF
KFLL 211137Z 2112/2212 14004KT P6SM FEW020 SCT150 BKN250
     FM211600 11010KT P6SM VCTS SCT030CB BKN250
      TEMPO 2117/2120 5SM TSRA BKN025CB
     FM220000 09005KT P6SM BKN250=



000
FTUS42 KMFL 211137
TAFAPF
TAF
KAPF 211137Z 2112/2212 08003KT P6SM SKC
     FM211600 27008KT P6SM VCTS SCT030CB BKN250
      TEMPO 2117/2120 5SM TSRA BKN025CB
     FM220000 05004KT P6SM BKN250=



000
FTUS42 KMFL 211137
TAFPBI
TAF
KPBI 211137Z 2112/2212 VRB03KT P6SM FEW025 SCT150 BKN250
     FM211600 11010KT P6SM VCTS SCT030CB BKN250
      TEMPO 2117/2120 5SM TSRA BKN025CB
     FM220000 09005KT P6SM BKN250=



000
FTUS42 KMFL 211137
TAFMIA
TAF
KMIA 211137Z 2112/2212 VRB03KT P6SM FEW025 SCT150 BKN250
     FM211600 11010KT P6SM VCTS SCT030CB BKN250
      TEMPO 2117/2120 5SM TSRA BKN025CB
     FM220000 09005KT P6SM BKN250=



000
FTUS42 KMFL 211137
TAFFLL
TAF
KFLL 211137Z 2112/2212 14004KT P6SM FEW020 SCT150 BKN250
     FM211600 11010KT P6SM VCTS SCT030CB BKN250
      TEMPO 2117/2120 5SM TSRA BKN025CB
     FM220000 09005KT P6SM BKN250=



000
FTUS42 KMFL 211137
TAFPBI
TAF
KPBI 211137Z 2112/2212 VRB03KT P6SM FEW025 SCT150 BKN250
     FM211600 11010KT P6SM VCTS SCT030CB BKN250
      TEMPO 2117/2120 5SM TSRA BKN025CB
     FM220000 09005KT P6SM BKN250=



000
FTUS42 KMFL 211137
TAFAPF
TAF
KAPF 211137Z 2112/2212 08003KT P6SM SKC
     FM211600 27008KT P6SM VCTS SCT030CB BKN250
      TEMPO 2117/2120 5SM TSRA BKN025CB
     FM220000 05004KT P6SM BKN250=



    US Dept of Commerce
    National Oceanic and Atmospheric Administration
    National Weather Service
    1325 East West Highway
    Silver Spring, MD 20910
    Page Author: NWS Internet Services Team
Disclaimer
Information Quality
Credits
Glossary
Privacy Policy
Freedom of Information Act (FOIA)
About Us
Career Opportunities